Time;durP1;ratioP1;P1;durP2;ratioP2;P2;SDS_P1;SDS_P2;PMS_P1;PMS_P2;Temp;Humidity;BMP_temperature;BMP_pressure;BME280_temperature;BME280_humidity;BME280_pressure;Samples;Min_cycle;Max_cycle;Signal;HPM_P1;HPM_P2
2022/10/12 00:01:49;;;;;;;10.77;7.00;;;9.10;99.90;;;;;;5065774;28;20210;-74
2022/10/12 00:04:17;;;;;;;10.67;6.87;;;9.10;99.90;;;;;;5082038;28;20205;-73
2022/10/12 00:06:44;;;;;;;10.10;6.17;;;8.90;99.90;;;;;;5064001;28;20212;-74
2022/10/12 00:09:11;;;;;;;10.77;6.97;;;8.90;99.90;;;;;;5065688;28;20201;-74
2022/10/12 00:11:40;;;;;;;9.70;7.10;;;8.90;99.90;;;;;;5080184;28;20229;-74
2022/10/12 00:14:07;;;;;;;8.53;6.67;;;8.90;99.90;;;;;;5064661;28;20201;-73
2022/10/12 00:16:35;;;;;;;8.80;6.03;;;8.80;99.90;;;;;;5082916;28;20682;-74
2022/10/12 00:19:04;;;;;;;10.07;7.00;;;8.70;99.90;;;;;;5060722;28;20209;-74
2022/10/12 00:21:31;;;;;;;8.00;6.83;;;8.70;99.90;;;;;;5063824;28;20225;-74
2022/10/12 00:24:00;;;;;;;9.00;6.40;;;8.70;99.90;;;;;;5076375;28;20225;-74
2022/10/12 00:26:29;;;;;;;7.43;5.70;;;8.60;99.90;;;;;;5066104;28;20190;-74
2022/10/12 00:28:58;;;;;;;8.97;6.10;;;8.60;99.90;;;;;;5063428;28;20197;-75
2022/10/12 00:31:30;;;;;;;10.67;6.33;;;8.70;99.90;;;;;;5081620;28;20217;-74
2022/10/12 00:34:00;;;;;;;7.97;6.00;;;8.60;99.90;;;;;;5059972;28;20202;-75
2022/10/12 00:36:31;;;;;;;7.03;5.60;;;8.60;99.90;;;;;;5060061;28;20210;-74
2022/10/12 00:38:59;;;;;;;7.53;5.70;;;8.50;99.90;;;;;;5068088;28;20201;-75
2022/10/12 00:41:31;;;;;;;8.17;5.80;;;8.60;99.90;;;;;;5064901;28;20214;-74
2022/10/12 00:43:59;;;;;;;6.73;5.53;;;8.60;99.90;;;;;;5064440;28;20185;-74
2022/10/12 00:46:30;;;;;;;6.83;5.50;;;8.70;99.90;;;;;;5065762;28;20216;-75
2022/10/12 00:49:02;;;;;;;9.77;6.43;;;8.60;99.90;;;;;;5065044;28;20193;-75
2022/10/12 00:51:31;;;;;;;9.43;5.73;;;8.50;99.90;;;;;;5055736;28;20224;-75
2022/10/12 00:54:03;;;;;;;9.17;5.93;;;8.40;99.90;;;;;;5056095;28;20222;-75
2022/10/12 00:56:33;;;;;;;8.50;5.27;;;8.40;99.90;;;;;;5068721;28;20190;-74
2022/10/12 00:59:04;;;;;;;10.10;6.10;;;8.40;99.90;;;;;;5063093;28;20224;-75
2022/10/12 01:01:34;;;;;;;9.13;5.80;;;8.30;99.90;;;;;;5076115;28;20584;-74
2022/10/12 01:04:02;;;;;;;6.93;6.10;;;8.40;99.90;;;;;;5076803;28;20206;-75
2022/10/12 01:06:31;;;;;;;9.40;5.87;;;8.30;99.90;;;;;;5063264;28;20566;-74
2022/10/12 01:08:59;;;;;;;8.23;5.87;;;8.30;99.90;;;;;;5063997;28;20198;-75
2022/10/12 01:11:26;;;;;;;7.73;5.97;;;8.20;99.90;;;;;;5067074;28;20221;-74
2022/10/12 01:13:54;;;;;;;7.00;5.60;;;8.10;99.90;;;;;;5062303;28;20217;-75
2022/10/12 01:16:28;;;;;;;7.87;5.20;;;8.20;99.90;;;;;;5069226;28;20213;-74
2022/10/12 01:19:05;;;;;;;10.17;6.20;;;8.20;99.90;;;;;;5071348;28;21080;-75
2022/10/12 01:21:41;;;;;;;6.43;5.53;;;8.20;99.90;;;;;;5067179;28;20236;-74
2022/10/12 01:24:42;;;;;;;7.10;5.43;;;8.20;99.90;;;;;;5077380;28;20194;-74
2022/10/12 01:27:29;;;;;;;10.27;6.43;;;8.10;99.90;;;;;;5058106;28;20217;-74
2022/10/12 01:30:18;;;;;;;7.50;5.33;;;8.20;99.90;;;;;;5064387;28;20201;-74
2022/10/12 01:33:12;;;;;;;7.03;5.80;;;8.10;99.90;;;;;;5056233;28;20667;-75
2022/10/12 01:35:45;;;;;;;9.10;5.80;;;8.10;99.90;;;;;;5065862;28;20208;-74
2022/10/12 01:38:21;;;;;;;9.03;5.83;;;8.20;99.90;;;;;;5075135;28;20204;-75
2022/10/12 01:40:56;;;;;;;7.23;5.87;;;8.20;99.90;;;;;;5060088;28;20695;-73
2022/10/12 01:43:32;;;;;;;6.53;5.47;;;8.20;99.90;;;;;;5065693;28;20189;-75
2022/10/12 01:46:06;;;;;;;8.90;5.53;;;8.20;99.90;;;;;;5080751;28;20563;-74
2022/10/12 01:48:34;;;;;;;8.30;4.93;;;8.00;99.90;;;;;;5060655;28;20206;-75
2022/10/12 01:51:02;;;;;;;7.97;6.07;;;8.10;99.90;;;;;;5055022;28;20229;-75
2022/10/12 01:53:40;;;;;;;8.27;5.07;;;8.10;99.90;;;;;;5067789;28;20209;-74
2022/10/12 01:56:17;;;;;;;8.27;5.57;;;7.90;99.90;;;;;;5063222;28;20686;-74
2022/10/12 01:58:54;;;;;;;7.97;4.97;;;7.90;99.90;;;;;;5080670;28;20870;-74
2022/10/12 02:01:32;;;;;;;5.80;5.20;;;7.80;99.90;;;;;;5079166;28;20217;-74
2022/10/12 02:04:08;;;;;;;6.03;4.77;;;7.80;99.90;;;;;;5064164;28;20193;-73
2022/10/12 02:06:40;;;;;;;6.63;5.70;;;7.70;99.90;;;;;;5066384;28;20208;-73
2022/10/12 02:09:14;;;;;;;9.87;6.00;;;7.80;99.90;;;;;;5063256;28;20198;-75
2022/10/12 02:11:45;;;;;;;7.10;5.83;;;7.80;99.90;;;;;;5064444;28;20221;-74
2022/10/12 02:14:16;;;;;;;8.10;6.00;;;7.80;99.90;;;;;;5052995;28;20710;-74
2022/10/12 02:16:49;;;;;;;8.30;5.90;;;7.80;99.90;;;;;;5061242;28;20200;-74
2022/10/12 02:19:22;;;;;;;8.90;5.77;;;7.90;99.90;;;;;;5057419;28;20193;-71
2022/10/12 02:21:51;;;;;;;8.57;6.53;;;7.90;99.90;;;;;;5061772;28;20221;-74
2022/10/12 02:24:20;;;;;;;7.60;5.73;;;7.70;99.90;;;;;;5061146;28;20201;-74
2022/10/12 02:26:52;;;;;;;8.43;6.00;;;7.60;99.90;;;;;;5062710;28;20199;-74
2022/10/12 02:29:23;;;;;;;10.63;6.20;;;7.70;99.90;;;;;;5072734;28;20206;-74
2022/10/12 02:31:58;;;;;;;7.43;5.90;;;7.60;99.90;;;;;;5060765;28;20217;-73
2022/10/12 02:34:31;;;;;;;7.07;5.83;;;7.60;99.90;;;;;;5079936;28;20217;-74
2022/10/12 02:37:06;;;;;;;9.03;6.10;;;7.60;99.90;;;;;;5079745;28;20210;-74
2022/10/12 02:39:39;;;;;;;6.73;5.23;;;7.50;99.90;;;;;;5081212;28;20194;-75
2022/10/12 02:42:12;;;;;;;6.13;5.53;;;7.40;99.90;;;;;;5066027;28;20225;-74
2022/10/12 02:44:42;;;;;;;8.27;5.50;;;7.50;99.90;;;;;;5066214;28;20195;-75
2022/10/12 02:47:12;;;;;;;5.97;5.33;;;7.60;99.90;;;;;;5079048;28;20682;-74
2022/10/12 02:49:41;;;;;;;10.20;6.07;;;7.70;99.90;;;;;;5067531;28;20198;-74
2022/10/12 02:52:09;;;;;;;8.53;5.37;;;7.60;99.90;;;;;;5077877;28;20237;-73
2022/10/12 02:54:36;;;;;;;9.27;5.40;;;7.60;99.90;;;;;;5071616;28;20209;-74
2022/10/12 02:57:04;;;;;;;7.53;5.00;;;7.50;99.90;;;;;;5061630;28;20205;-73
2022/10/12 02:59:31;;;;;;;8.33;5.30;;;7.60;99.90;;;;;;5081709;28;20194;-74
2022/10/12 03:01:59;;;;;;;8.73;5.43;;;7.50;99.90;;;;;;5074109;28;20222;-74
2022/10/12 03:04:27;;;;;;;6.13;5.07;;;7.70;99.90;;;;;;5082302;28;20205;-72
2022/10/12 03:06:55;;;;;;;9.10;5.37;;;7.70;99.90;;;;;;5061046;28;20702;-75
2022/10/12 03:09:22;;;;;;;9.07;6.13;;;7.70;99.90;;;;;;5064746;28;20190;-74
2022/10/12 03:11:49;;;;;;;12.13;6.37;;;7.80;99.90;;;;;;5079942;28;20315;-74
2022/10/12 03:14:17;;;;;;;6.00;5.30;;;7.90;99.90;;;;;;5071191;28;20226;-75
2022/10/12 03:16:45;;;;;;;6.23;5.13;;;7.90;99.90;;;;;;5057855;28;20189;-74
2022/10/12 03:19:15;;;;;;;7.67;5.70;;;7.60;99.90;;;;;;5068611;28;20663;-75
2022/10/12 03:21:44;;;;;;;5.67;4.90;;;7.50;99.90;;;;;;5080700;28;20222;-75
2022/10/12 03:24:12;;;;;;;6.47;5.10;;;7.50;99.90;;;;;;5071134;28;20197;-75
2022/10/12 03:26:42;;;;;;;7.33;6.00;;;7.60;99.90;;;;;;5081788;28;20193;-75
2022/10/12 03:29:09;;;;;;;8.03;5.30;;;7.60;99.90;;;;;;5061565;28;20669;-74
2022/10/12 03:31:37;;;;;;;6.90;5.10;;;7.50;99.90;;;;;;5065819;28;20218;-74
2022/10/12 03:34:04;;;;;;;7.53;5.07;;;7.40;99.90;;;;;;5080060;28;20213;-75
2022/10/12 03:36:32;;;;;;;8.27;6.03;;;7.30;99.90;;;;;;5074347;28;20194;-75
2022/10/12 03:39:00;;;;;;;9.13;7.17;;;7.30;99.90;;;;;;5080077;28;20671;-74
2022/10/12 03:41:28;;;;;;;10.37;6.90;;;7.30;99.90;;;;;;5069716;28;20214;-74
2022/10/12 03:43:55;;;;;;;7.37;6.67;;;7.20;99.90;;;;;;5062488;28;20205;-73
2022/10/12 03:46:22;;;;;;;9.07;6.73;;;7.30;99.90;;;;;;5080797;28;20564;-74
2022/10/12 03:48:50;;;;;;;8.07;5.87;;;7.30;99.90;;;;;;5070149;28;20205;-72
2022/10/12 03:51:17;;;;;;;6.67;5.90;;;7.30;99.90;;;;;;5065717;28;20228;-74
2022/10/12 03:53:44;;;;;;;9.57;6.27;;;7.30;99.90;;;;;;5081497;28;20221;-74
2022/10/12 03:56:13;;;;;;;6.57;5.70;;;7.40;99.90;;;;;;5082669;22;20699;-78
2022/10/12 03:58:41;;;;;;;6.50;5.10;;;7.40;99.90;;;;;;5036055;28;20195;-80
2022/10/12 04:01:08;;;;;;;9.97;6.03;;;7.40;99.90;;;;;;5036784;28;20198;-80
2022/10/12 04:03:36;;;;;;;7.27;6.13;;;7.30;99.90;;;;;;5032637;28;20206;-80
2022/10/12 04:06:04;;;;;;;6.90;5.33;;;7.10;99.90;;;;;;5034186;28;20223;-80
2022/10/12 04:08:31;;;;;;;8.50;5.60;;;7.20;99.90;;;;;;5025436;28;20204;-81
2022/10/12 04:10:59;;;;;;;8.60;5.70;;;7.30;99.90;;;;;;5046964;28;20210;-79
2022/10/12 04:13:28;;;;;;;8.20;6.00;;;7.20;99.90;;;;;;5035344;28;20219;-79
2022/10/12 04:15:55;;;;;;;9.00;6.13;;;7.00;99.90;;;;;;5033285;28;20231;-79
2022/10/12 04:18:23;;;;;;;8.63;5.70;;;7.00;99.90;;;;;;5049149;28;20198;-80
2022/10/12 04:20:50;;;;;;;9.33;6.57;;;7.10;99.90;;;;;;5035165;28;20199;-80
2022/10/12 04:23:17;;;;;;;9.73;5.83;;;7.10;99.90;;;;;;5033753;28;20199;-80
2022/10/12 04:25:45;;;;;;;8.67;5.93;;;7.20;99.90;;;;;;5034675;28;20214;-80
2022/10/12 04:28:12;;;;;;;9.20;5.50;;;7.20;99.90;;;;;;5033362;28;20198;-80
2022/10/12 04:30:41;;;;;;;9.57;5.93;;;7.30;99.90;;;;;;5033116;28;20568;-79
2022/10/12 04:33:08;;;;;;;8.30;5.57;;;7.30;99.90;;;;;;5031263;28;20210;-80
2022/10/12 04:35:36;;;;;;;10.07;5.73;;;7.30;99.90;;;;;;5030156;28;21948;-80
2022/10/12 04:38:03;;;;;;;6.27;5.23;;;7.40;99.90;;;;;;5032554;28;20199;-80
2022/10/12 04:40:31;;;;;;;7.63;5.77;;;7.50;99.90;;;;;;5032033;28;20199;-80
2022/10/12 04:42:58;;;;;;;9.20;6.00;;;7.50;99.90;;;;;;5031843;28;20214;-80
2022/10/12 04:45:26;;;;;;;7.73;5.93;;;7.50;99.90;;;;;;5029713;28;20211;-80
2022/10/12 04:47:54;;;;;;;8.83;6.17;;;7.50;99.90;;;;;;5033417;28;20210;-80
2022/10/12 04:50:22;;;;;;;6.47;5.47;;;7.40;99.90;;;;;;5033881;28;20210;-80
2022/10/12 04:52:49;;;;;;;7.83;6.10;;;7.50;99.90;;;;;;5031626;28;20198;-80
2022/10/12 04:55:17;;;;;;;8.03;5.93;;;7.40;99.90;;;;;;5029938;28;20223;-80
2022/10/12 04:57:44;;;;;;;8.60;6.50;;;7.30;99.90;;;;;;5033750;28;20195;-80
2022/10/12 05:00:12;;;;;;;8.70;6.60;;;7.40;99.90;;;;;;5026656;28;20200;-80
2022/10/12 05:02:40;;;;;;;10.03;6.13;;;7.40;99.90;;;;;;5033054;28;20202;-80
2022/10/12 05:05:09;;;;;;;9.43;5.60;;;7.30;99.90;;;;;;5029185;28;20203;-80
2022/10/12 05:07:37;;;;;;;9.60;6.13;;;7.30;99.90;;;;;;5033659;28;20226;-80
2022/10/12 05:10:05;;;;;;;7.63;6.13;;;7.30;99.90;;;;;;5027999;28;20199;-80
2022/10/12 05:12:33;;;;;;;8.17;5.47;;;7.30;99.90;;;;;;5042040;28;20202;-80
2022/10/12 05:15:00;;;;;;;7.40;5.47;;;7.30;99.90;;;;;;5025210;28;20223;-80
2022/10/12 05:17:28;;;;;;;6.43;5.17;;;7.30;99.90;;;;;;5043146;28;20218;-80
2022/10/12 05:19:55;;;;;;;7.00;5.93;;;7.30;99.90;;;;;;5029269;28;20207;-80
2022/10/12 05:22:49;;;;;;;8.63;6.07;;;7.40;99.90;;;;;;5029103;28;20202;-81
2022/10/12 05:25:19;;;;;;;8.83;6.40;;;7.40;99.90;;;;;;5041505;28;20187;-81
2022/10/12 05:27:46;;;;;;;8.73;5.80;;;7.50;99.90;;;;;;5025051;28;20199;-80
2022/10/12 05:30:14;;;;;;;10.97;6.63;;;7.40;99.90;;;;;;5027823;28;20206;-81
2022/10/12 05:32:43;;;;;;;10.73;6.40;;;7.20;99.90;;;;;;5045555;28;20554;-82
2022/10/12 05:35:11;;;;;;;8.90;6.63;;;7.30;99.90;;;;;;5033933;28;20238;-81
2022/10/12 05:37:39;;;;;;;8.87;6.23;;;7.20;99.90;;;;;;5032558;28;20226;-81
2022/10/12 05:40:09;;;;;;;9.97;6.00;;;7.20;99.90;;;;;;5035010;28;20207;-81
2022/10/12 05:42:36;;;;;;;9.37;6.53;;;7.10;99.90;;;;;;5035637;28;20209;-81
2022/10/12 05:45:07;;;;;;;9.50;6.40;;;7.20;99.90;;;;;;5030260;28;20207;-81
2022/10/12 05:47:40;;;;;;;9.07;6.53;;;7.30;99.90;;;;;;5033538;28;20695;-81
2022/10/12 05:50:15;;;;;;;8.57;6.20;;;7.20;99.90;;;;;;5033896;28;20210;-81
2022/10/12 05:52:45;;;;;;;6.83;6.10;;;7.20;99.90;;;;;;5032078;28;20210;-80
2022/10/12 05:55:23;;;;;;;7.03;6.07;;;7.20;99.90;;;;;;5029950;28;20223;-80
2022/10/12 05:57:51;;;;;;;8.00;6.20;;;7.10;99.90;;;;;;5027616;28;20215;-80
2022/10/12 06:00:18;;;;;;;10.40;6.70;;;7.10;99.90;;;;;;5031519;28;20230;-80
2022/10/12 06:02:46;;;;;;;13.93;6.47;;;7.20;99.90;;;;;;5031385;28;20218;-81
2022/10/12 06:05:14;;;;;;;9.93;6.47;;;7.20;99.90;;;;;;5035201;28;20206;-81
2022/10/12 06:07:41;;;;;;;11.07;6.73;;;7.20;99.90;;;;;;5032040;28;20656;-81
2022/10/12 06:10:09;;;;;;;9.03;6.13;;;7.30;99.90;;;;;;5045172;28;20196;-80
2022/10/12 06:12:43;;;;;;;7.40;6.50;;;7.00;99.90;;;;;;5029363;28;20203;-80
2022/10/12 06:15:11;;;;;;;7.47;6.27;;;7.00;99.90;;;;;;5031907;28;20214;-80
2022/10/12 06:17:38;;;;;;;10.20;6.50;;;6.90;99.90;;;;;;5028000;28;20227;-80
2022/10/12 06:20:07;;;;;;;9.20;6.37;;;7.00;99.90;;;;;;5028868;28;20211;-80
2022/10/12 06:22:34;;;;;;;7.80;6.23;;;7.10;99.90;;;;;;5034110;28;20695;-81
2022/10/12 06:25:04;;;;;;;10.03;6.40;;;7.20;99.90;;;;;;5029010;28;20206;-80
2022/10/12 06:27:32;;;;;;;7.37;6.10;;;7.40;99.90;;;;;;5042697;28;20569;-81
2022/10/12 06:30:00;;;;;;;9.83;6.53;;;7.30;99.90;;;;;;5034259;28;20213;-80
2022/10/12 06:32:32;;;;;;;8.87;5.93;;;7.20;99.90;;;;;;5031500;28;20203;-84
2022/10/12 06:34:59;;;;;;;8.63;6.27;;;7.10;99.90;;;;;;5029350;28;20219;-79
2022/10/12 06:37:28;;;;;;;7.23;6.53;;;7.10;99.90;;;;;;5029994;28;20229;-80
2022/10/12 06:39:57;;;;;;;7.70;6.00;;;7.00;99.90;;;;;;5032551;28;20214;-80
2022/10/12 06:42:28;;;;;;;8.00;5.70;;;7.10;99.90;;;;;;5032441;28;20207;-80
2022/10/12 06:45:00;;;;;;;9.20;6.10;;;7.10;99.90;;;;;;5032994;28;20199;-80
2022/10/12 06:47:28;;;;;;;10.10;6.00;;;7.10;99.90;;;;;;5033920;28;20577;-80
2022/10/12 06:49:55;;;;;;;7.10;5.97;;;7.20;99.90;;;;;;5030641;28;20218;-80
2022/10/12 06:52:23;;;;;;;10.90;6.03;;;7.30;99.90;;;;;;5027700;28;20200;-80
2022/10/12 06:54:50;;;;;;;6.97;5.83;;;7.40;99.90;;;;;;5032127;28;20202;-79
2022/10/12 06:57:18;;;;;;;10.87;6.80;;;7.40;99.90;;;;;;5030984;28;20593;-80
2022/10/12 06:59:45;;;;;;;11.13;6.50;;;7.50;99.90;;;;;;5033892;28;20199;-79
2022/10/12 07:02:14;;;;;;;10.97;7.27;;;7.80;99.90;;;;;;5036280;28;20199;-79
2022/10/12 07:04:42;;;;;;;15.57;7.57;;;7.80;99.90;;;;;;5030136;28;20202;-79
2022/10/12 07:07:09;;;;;;;8.87;7.13;;;7.70;99.90;;;;;;5033496;28;20223;-79
2022/10/12 07:09:36;;;;;;;13.67;8.07;;;7.80;99.90;;;;;;5033124;28;20569;-80
2022/10/12 07:12:05;;;;;;;9.60;7.53;;;7.90;99.90;;;;;;5031499;28;20221;-79
2022/10/12 07:14:32;;;;;;;12.20;7.33;;;8.10;99.90;;;;;;5033323;28;20202;-79
2022/10/12 07:16:59;;;;;;;11.50;7.67;;;8.20;99.90;;;;;;5033050;28;20696;-79
2022/10/12 07:19:29;;;;;;;12.23;8.40;;;8.20;99.90;;;;;;5030787;28;20568;-80
2022/10/12 07:21:57;;;;;;;11.53;7.50;;;8.30;99.90;;;;;;5027806;28;20549;-80
2022/10/12 07:24:24;;;;;;;9.93;6.80;;;8.30;99.90;;;;;;5029621;28;20218;-80
2022/10/12 07:26:52;;;;;;;12.17;7.80;;;8.30;99.90;;;;;;5026763;28;20226;-80
2022/10/12 07:29:19;;;;;;;10.23;7.47;;;8.30;99.90;;;;;;5028419;28;20203;-79
2022/10/12 07:31:46;;;;;;;16.10;7.90;;;8.30;99.90;;;;;;5030573;28;20557;-79
2022/10/12 07:34:14;;;;;;;13.40;7.10;;;8.50;99.90;;;;;;5028240;28;20214;-79
2022/10/12 07:36:43;;;;;;;17.57;9.13;;;8.50;99.90;;;;;;5035605;28;20219;-79
2022/10/12 07:39:11;;;;;;;13.80;8.40;;;8.60;99.90;;;;;;5034240;28;20199;-78
2022/10/12 07:41:38;;;;;;;16.77;8.10;;;8.70;99.90;;;;;;5035379;28;20199;-78
2022/10/12 07:44:06;;;;;;;15.57;8.07;;;8.80;99.90;;;;;;5035357;28;20207;-79
2022/10/12 07:46:33;;;;;;;11.43;7.60;;;9.00;99.90;;;;;;5036917;28;20237;-78
2022/10/12 07:49:01;;;;;;;17.30;9.10;;;9.10;99.90;;;;;;5035181;28;20570;-79
2022/10/12 07:51:28;;;;;;;15.43;9.50;;;9.20;99.90;;;;;;5035627;28;20207;-79
2022/10/12 07:53:59;;;;;;;15.47;8.33;;;9.30;99.90;;;;;;5036260;28;20199;-79
2022/10/12 07:56:26;;;;;;;14.57;7.57;;;9.40;99.90;;;;;;5036356;28;20237;-77
2022/10/12 07:58:56;;;;;;;15.17;8.40;;;9.50;99.90;;;;;;5032426;28;20199;-77
2022/10/12 08:01:26;;;;;;;15.10;8.60;;;9.60;99.90;;;;;;5031341;28;20298;-77
2022/10/12 08:03:54;;;;;;;14.20;8.67;;;9.80;99.90;;;;;;5040472;28;20199;-76
2022/10/12 08:06:24;;;;;;;17.30;7.67;;;9.90;99.90;;;;;;5031187;28;20211;-76
2022/10/12 08:08:51;;;;;;;21.53;8.53;;;10.20;99.90;;;;;;5030002;28;20203;-77
2022/10/12 08:11:21;;;;;;;14.87;7.83;;;10.40;99.90;;;;;;5039668;28;20206;-77
2022/10/12 08:13:49;;;;;;;12.40;7.43;;;10.50;99.90;;;;;;5028857;28;20200;-76
2022/10/12 08:16:18;;;;;;;15.83;7.80;;;10.60;99.90;;;;;;5030238;28;20249;-77
2022/10/12 08:18:46;;;;;;;11.37;6.33;;;10.80;99.90;;;;;;5029272;28;20206;-77
2022/10/12 08:21:15;;;;;;;9.30;6.43;;;11.00;99.90;;;;;;5031172;28;20207;-77
2022/10/12 08:23:43;;;;;;;15.37;7.60;;;11.10;99.90;;;;;;5031833;28;20218;-77
2022/10/12 08:26:11;;;;;;;11.57;6.67;;;11.30;99.90;;;;;;5031308;28;20598;-77
2022/10/12 08:28:40;;;;;;;12.20;6.00;;;11.40;99.90;;;;;;5024141;28;20215;-77
2022/10/12 08:31:09;;;;;;;10.53;6.03;;;11.40;99.90;;;;;;5028470;28;20672;-77
2022/10/12 08:33:36;;;;;;;9.33;5.27;;;11.50;99.90;;;;;;5031418;28;20195;-77
2022/10/12 08:36:06;;;;;;;9.67;5.20;;;11.60;99.90;;;;;;5028245;28;20222;-77
2022/10/12 08:38:33;;;;;;;11.47;5.20;;;11.70;99.90;;;;;;5027050;28;20234;-77
2022/10/12 08:41:12;;;;;;;9.63;5.47;;;11.80;99.90;;;;;;5029697;28;20206;-77
2022/10/12 08:43:54;;;;;;;9.60;4.53;;;11.90;99.90;;;;;;5027930;28;20664;-76
2022/10/12 08:46:24;;;;;;;10.10;4.83;;;11.90;99.90;;;;;;5028088;28;20222;-77
2022/10/12 08:48:57;;;;;;;14.38;4.97;;;11.90;99.90;;;;;;5023165;28;20203;-77
2022/10/12 08:51:28;;;;;;;10.45;4.75;;;12.00;99.90;;;;;;5026754;28;20257;-77
2022/10/12 08:54:00;;;;;;;10.48;6.88;;;12.10;99.90;;;;;;5027201;28;20214;-77
2022/10/12 08:56:27;;;;;;;15.73;9.68;;;12.20;99.90;;;;;;5037611;28;20227;-77
2022/10/12 08:58:56;;;;;;;24.02;13.82;;;12.30;99.90;;;;;;5037647;28;20235;-77
2022/10/12 09:01:32;;;;;;;33.83;19.15;;;12.40;99.90;;;;;;5015121;28;20208;-77
2022/10/12 09:04:16;;;;;;;33.63;20.05;;;12.50;99.90;;;;;;5020080;28;20214;-77
2022/10/12 09:06:49;;;;;;;18.45;9.20;;;12.50;99.90;;;;;;5025728;28;20226;-77
2022/10/12 09:09:38;;;;;;;17.77;10.18;;;12.50;99.90;;;;;;5022288;28;20199;-78
2022/10/12 09:12:19;;;;;;;16.00;9.48;;;12.60;99.90;;;;;;5020881;28;20191;-77
2022/10/12 09:14:49;;;;;;;8.63;4.45;;;12.80;99.90;;;;;;5028266;28;20193;-77
2022/10/12 09:17:30;;;;;;;6.88;4.15;;;12.90;99.90;;;;;;5024793;28;20218;-78
2022/10/12 09:20:06;;;;;;;7.65;4.10;;;13.00;99.90;;;;;;5024568;28;20218;-77
2022/10/12 09:22:35;;;;;;;8.77;4.07;;;13.00;99.90;;;;;;5026088;28;20289;-77
2022/10/12 09:25:02;;;;;;;7.07;3.70;;;13.20;99.90;;;;;;5026453;28;20206;-76
2022/10/12 09:27:31;;;;;;;6.10;2.47;;;13.20;99.90;;;;;;5026102;28;20226;-79
2022/10/12 09:30:05;;;;;;;8.05;2.92;;;13.30;99.90;;;;;;5026601;28;20217;-78
2022/10/12 09:32:54;;;;;;;5.97;3.17;;;13.30;99.90;;;;;;5044681;28;20206;-78
2022/10/12 09:35:22;;;;;;;6.13;2.67;;;13.50;99.90;;;;;;5024480;28;20210;-78
2022/10/12 09:37:52;;;;;;;6.72;3.10;;;13.60;99.90;;;;;;5023666;28;20219;-78
2022/10/12 09:40:23;;;;;;;8.95;3.17;;;13.80;99.90;;;;;;5025253;28;20222;-78
2022/10/12 09:42:53;;;;;;;4.28;2.67;;;13.90;99.90;;;;;;5024862;28;20211;-78
2022/10/12 09:45:30;;;;;;;6.30;3.00;;;14.00;99.90;;;;;;5018058;28;20218;-78
2022/10/12 09:48:16;;;;;;;9.32;3.13;;;14.00;99.90;;;;;;5024015;28;20194;-78
2022/10/12 09:50:48;;;;;;;4.68;2.60;;;14.10;98.90;;;;;;5044094;28;20208;-78
2022/10/12 09:53:26;;;;;;;7.57;3.00;;;14.00;98.90;;;;;;5024971;28;20222;-78
2022/10/12 09:55:56;;;;;;;10.38;3.10;;;14.00;97.40;;;;;;5026863;28;20931;-78
2022/10/12 09:58:26;;;;;;;7.00;3.50;;;14.00;97.90;;;;;;5026983;28;20537;-79
2022/10/12 10:01:17;;;;;;;8.30;3.40;;;14.00;98.10;;;;;;5041482;28;20563;-79
2022/10/12 10:03:46;;;;;;;8.13;2.97;;;14.20;97.20;;;;;;5032376;28;20588;-79
2022/10/12 10:06:14;;;;;;;7.57;2.97;;;14.50;98.30;;;;;;5031528;28;20235;-79
2022/10/12 10:08:44;;;;;;;6.07;2.33;;;14.60;98.40;;;;;;5032095;28;20214;-79
2022/10/12 10:11:18;;;;;;;6.63;2.67;;;14.60;97.20;;;;;;5030605;28;20206;-78
2022/10/12 10:13:49;;;;;;;4.35;2.42;;;14.30;96.90;;;;;;5030490;28;20209;-78
2022/10/12 10:16:19;;;;;;;7.88;3.03;;;14.50;97.90;;;;;;5027778;28;20211;-78
2022/10/12 10:18:50;;;;;;;7.65;2.85;;;14.40;97.50;;;;;;5026313;28;20218;-78
2022/10/12 10:21:27;;;;;;;4.63;2.70;;;14.60;95.90;;;;;;5033593;28;20209;-78
2022/10/12 10:23:56;;;;;;;5.85;2.90;;;14.80;96.40;;;;;;5048263;28;20199;-79
2022/10/12 10:26:26;;;;;;;8.85;3.08;;;14.90;95.80;;;;;;5029213;28;20599;-77
2022/10/12 10:28:57;;;;;;;7.43;2.80;;;15.30;96.00;;;;;;5033299;28;20210;-77
2022/10/12 10:31:28;;;;;;;4.60;2.60;;;15.20;96.10;;;;;;5030540;28;20195;-78
2022/10/12 10:34:21;;;;;;;6.63;2.97;;;15.20;95.50;;;;;;5025480;28;20191;-78
2022/10/12 10:36:51;;;;;;;6.50;2.90;;;15.00;94.90;;;;;;5018195;28;20309;-78
2022/10/12 10:39:26;;;;;;;5.78;2.50;;;14.80;95.30;;;;;;5027376;28;20203;-78
2022/10/12 10:41:54;;;;;;;6.18;2.90;;;14.80;95.40;;;;;;5046654;28;20561;-78
2022/10/12 10:44:27;;;;;;;6.32;3.00;;;15.00;96.80;;;;;;5028301;28;20211;-78
2022/10/12 10:47:00;;;;;;;4.38;2.78;;;15.50;95.50;;;;;;5024463;28;20248;-78
2022/10/12 10:49:38;;;;;;;8.85;3.22;;;15.60;94.50;;;;;;5027224;28;20214;-79
2022/10/12 10:52:07;;;;;;;7.35;3.03;;;15.70;94.40;;;;;;5021142;28;20213;-78
2022/10/12 10:54:37;;;;;;;7.63;3.33;;;15.90;94.20;;;;;;5031671;28;20202;-78
2022/10/12 10:57:14;;;;;;;6.05;3.30;;;15.50;94.90;;;;;;5028284;28;20237;-78
2022/10/12 10:59:49;;;;;;;5.30;2.60;;;15.70;94.60;;;;;;5028655;28;20651;-77
2022/10/12 11:02:29;;;;;;;5.70;2.70;;;15.90;94.00;;;;;;5031330;28;20198;-78
2022/10/12 11:05:04;;;;;;;7.95;3.20;;;16.50;92.40;;;;;;5047265;28;20206;-78
2022/10/12 11:07:41;;;;;;;6.30;2.88;;;16.80;90.60;;;;;;5029487;28;20217;-78
2022/10/12 11:10:20;;;;;;;6.75;3.05;;;17.10;90.30;;;;;;5032048;28;20207;-79
2022/10/12 11:12:53;;;;;;;8.02;3.15;;;17.00;91.10;;;;;;5024292;28;20706;-77
2022/10/12 11:15:25;;;;;;;5.93;2.70;;;17.30;89.60;;;;;;5026662;28;20199;-79
2022/10/12 11:18:00;;;;;;;9.85;3.17;;;17.50;90.80;;;;;;5022183;28;20211;-77
2022/10/12 11:20:39;;;;;;;8.40;3.13;;;17.50;90.10;;;;;;5034100;28;20194;-77
2022/10/12 11:23:20;;;;;;;7.95;3.08;;;18.20;87.10;;;;;;5029067;28;20203;-77
2022/10/12 11:26:03;;;;;;;9.48;2.80;;;18.30;87.20;;;;;;5029076;28;20238;-78
2022/10/12 11:28:33;;;;;;;5.03;2.47;;;18.20;88.50;;;;;;5029903;28;20199;-77
2022/10/12 11:31:02;;;;;;;8.13;2.78;;;17.70;88.20;;;;;;5030898;28;20191;-78
2022/10/12 11:33:37;;;;;;;5.78;2.15;;;17.60;86.50;;;;;;5027527;28;20560;-77
2022/10/12 11:36:07;;;;;;;6.00;2.50;;;18.40;83.10;;;;;;5027486;28;20698;-78
2022/10/12 11:38:41;;;;;;;6.30;2.72;;;18.60;83.00;;;;;;5022366;28;20228;-78
2022/10/12 11:41:12;;;;;;;5.63;2.53;;;18.40;80.40;;;;;;5029650;28;20790;-78
2022/10/12 11:43:46;;;;;;;5.47;2.10;;;19.20;79.10;;;;;;5029734;28;20199;-78
2022/10/12 11:46:17;;;;;;;7.22;2.25;;;19.50;77.70;;;;;;5026651;28;20222;-77
2022/10/12 11:48:52;;;;;;;8.52;1.98;;;20.10;75.10;;;;;;5027762;28;20584;-77
2022/10/12 11:51:19;;;;;;;6.50;1.90;;;20.20;70.10;;;;;;5028275;28;20202;-78
2022/10/12 11:53:57;;;;;;;2.83;1.88;;;19.90;70.10;;;;;;5029172;28;20203;-78
2022/10/12 11:56:29;;;;;;;5.00;1.95;;;19.50;71.70;;;;;;5024421;28;20591;-77
2022/10/12 11:59:01;;;;;;;3.85;1.80;;;19.60;71.40;;;;;;5022967;28;20226;-78
2022/10/12 12:01:49;;;;;;;4.53;1.70;;;19.10;76.20;;;;;;5030027;22;20904;-75
2022/10/12 12:04:25;;;;;;;2.80;1.35;;;18.40;75.00;;;;;;4990029;28;20196;-75
2022/10/12 12:06:55;;;;;;;4.35;1.90;;;17.80;78.60;;;;;;4987201;28;20550;-76
2022/10/12 12:09:39;;;;;;;3.85;2.08;;;17.40;80.40;;;;;;4983910;28;20205;-75
2022/10/12 12:12:22;;;;;;;5.72;1.77;;;17.30;79.50;;;;;;5005673;28;20220;-75
2022/10/12 12:15:18;;;;;;;3.70;1.73;;;16.90;84.00;;;;;;4988327;28;20219;-74
2022/10/12 12:18:09;;;;;;;4.13;1.65;;;18.00;83.20;;;;;;4991095;28;20220;-74
2022/10/12 12:21:05;;;;;;;4.40;1.80;;;18.80;77.30;;;;;;4985604;28;20201;-75
2022/10/12 12:23:39;;;;;;;4.50;2.03;;;17.90;76.10;;;;;;4987081;28;20196;-75
2022/10/12 12:26:18;;;;;;;4.38;2.13;;;17.80;78.50;;;;;;4990917;28;20694;-75
2022/10/12 12:28:47;;;;;;;3.85;2.35;;;17.80;78.80;;;;;;4992357;28;20208;-74
2022/10/12 12:31:17;;;;;;;4.05;2.10;;;17.60;79.30;;;;;;4991253;28;20224;-75
2022/10/12 12:33:47;;;;;;;4.40;1.77;;;17.40;80.70;;;;;;4991293;28;20211;-75
2022/10/12 12:36:29;;;;;;;6.05;1.75;;;17.50;81.40;;;;;;4991063;28;20204;-74
2022/10/12 12:38:57;;;;;;;7.18;2.13;;;17.70;84.30;;;;;;4994738;28;20224;-75
2022/10/12 12:41:27;;;;;;;6.47;2.35;;;18.50;81.10;;;;;;4988280;28;20231;-74
2022/10/12 12:43:58;;;;;;;2.97;2.00;;;18.40;78.90;;;;;;4990069;28;20539;-74
2022/10/12 12:46:45;;;;;;;9.07;2.13;;;18.00;80.80;;;;;;4992562;28;20211;-74
2022/10/12 12:49:29;;;;;;;5.70;1.92;;;17.60;78.90;;;;;;4991999;28;20207;-75
2022/10/12 12:51:58;;;;;;;5.55;2.08;;;18.00;78.80;;;;;;4992396;28;20227;-75
2022/10/12 12:54:26;;;;;;;4.07;2.30;;;17.80;77.60;;;;;;4992567;28;20562;-74
2022/10/12 12:57:29;;;;;;;6.28;2.92;;;17.90;78.70;;;;;;4990866;28;20211;-74
2022/10/12 13:00:13;;;;;;;4.93;2.17;;;17.80;79.60;;;;;;4985320;28;20223;-74
2022/10/12 13:03:08;;;;;;;3.90;2.00;;;17.50;81.80;;;;;;4985764;28;20224;-75
2022/10/12 13:06:29;;;;;;;4.47;2.05;;;17.50;81.10;;;;;;4984196;28;20219;-75
2022/10/12 13:09:35;;;;;;;6.82;2.33;;;17.90;79.50;;;;;;4927991;29;20209;-75
2022/10/12 13:12:15;;;;;;;5.25;2.00;;;18.10;79.50;;;;;;4946486;28;20216;-75
2022/10/12 13:15:08;;;;;;;3.70;1.80;;;17.80;77.10;;;;;;4986194;28;20203;-75